Time;durP1;ratioP1;P1;durP2;ratioP2;P2;SDS_P1;SDS_P2;PMS_P1;PMS_P2;Temp;Humidity;BMP_temperature;BMP_pressure;BME280_temperature;BME280_humidity;BME280_pressure;Samples;Min_cycle;Max_cycle;Signal;HPM_P1;HPM_P2
2022/08/18 00:01:10;;;;;;;23.95;13.43;;;;;;;;;;5158250;27;20232;-55
2022/08/18 00:03:40;;;;;;;18.25;13.18;;;;;;;;;;5157922;27;20253;-51
2022/08/18 00:06:23;;;;;;;18.67;13.27;;;;;;;;;;5158266;27;20200;-51
2022/08/18 00:08:54;;;;;;;21.83;12.57;;;;;;;;;;5158189;27;20265;-51
2022/08/18 00:11:22;;;;;;;18.45;12.57;;;;;;;;;;5158390;27;20268;-52
2022/08/18 00:13:49;;;;;;;20.40;12.70;;;;;;;;;;5156929;27;20215;-54
2022/08/18 00:16:16;;;;;;;15.55;12.88;;;;;;;;;;5157841;27;20197;-54
2022/08/18 00:18:43;;;;;;;15.73;13.65;;;;;;;;;;5157895;27;20196;-52
2022/08/18 00:21:10;;;;;;;16.95;13.93;;;;;;;;;;5157760;27;20277;-54
2022/08/18 00:23:37;;;;;;;17.10;13.65;;;;;;;;;;5157836;27;20205;-55
2022/08/18 00:26:04;;;;;;;20.20;14.23;;;;;;;;;;5157932;27;20633;-54
2022/08/18 00:28:31;;;;;;;16.55;14.80;;;;;;;;;;5157487;27;20196;-52
2022/08/18 00:30:59;;;;;;;19.42;15.50;;;;;;;;;;5157794;27;20219;-53
2022/08/18 00:33:26;;;;;;;20.35;14.60;;;;;;;;;;5153668;27;20231;-55
2022/08/18 00:35:53;;;;;;;20.40;13.93;;;;;;;;;;5156498;27;20241;-51
2022/08/18 00:38:20;;;;;;;18.17;13.23;;;;;;;;;;5157290;27;20196;-53
2022/08/18 00:40:52;;;;;;;16.60;13.15;;;;;;;;;;5157228;27;20227;-50
2022/08/18 00:43:44;;;;;;;19.27;13.52;;;;;;;;;;5157236;27;20526;-54
2022/08/18 00:46:26;;;;;;;16.40;11.77;;;;;;;;;;5157422;27;20196;-52
2022/08/18 00:48:53;;;;;;;13.73;11.80;;;;;;;;;;5157488;27;20558;-54
2022/08/18 00:51:22;;;;;;;18.50;13.10;;;;;;;;;;5156988;27;20582;-52
2022/08/18 00:53:57;;;;;;;20.85;14.15;;;;;;;;;;5157068;27;20200;-52
2022/08/18 00:56:27;;;;;;;18.55;13.77;;;;;;;;;;5157163;27;20264;-54
2022/08/18 00:58:59;;;;;;;18.17;13.73;;;;;;;;;;5157363;27;20251;-53
2022/08/18 01:01:29;;;;;;;19.83;13.60;;;;;;;;;;5156464;27;20208;-54
2022/08/18 01:04:08;;;;;;;22.45;13.95;;;;;;;;;;5156591;27;20217;-54
2022/08/18 01:06:40;;;;;;;22.52;14.85;;;;;;;;;;5157237;27;20208;-53
2022/08/18 01:09:07;;;;;;;21.50;14.35;;;;;;;;;;5157071;27;20732;-56
2022/08/18 01:11:37;;;;;;;18.40;13.40;;;;;;;;;;5156796;27;20253;-52
2022/08/18 01:14:07;;;;;;;19.33;12.95;;;;;;;;;;5157203;27;20200;-52
2022/08/18 01:22:18;;;;;;;19.98;13.45;;;;;;;;;;5156166;27;20200;-52
2022/08/18 01:27:31;;;;;;;19.80;12.63;;;;;;;;;;5156809;27;20218;-51
2022/08/18 01:30:08;;;;;;;15.77;13.35;;;;;;;;;;5151215;27;20297;-57
2022/08/18 01:32:37;;;;;;;20.40;12.93;;;;;;;;;;5137152;27;20284;-54
2022/08/18 01:35:07;;;;;;;18.83;14.02;;;;;;;;;;5135675;27;20714;-53
2022/08/18 01:37:35;;;;;;;19.83;14.68;;;;;;;;;;5136139;27;20272;-54
2022/08/18 01:40:05;;;;;;;16.88;12.85;;;;;;;;;;5135936;27;20221;-54
2022/08/18 01:42:53;;;;;;;18.65;12.73;;;;;;;;;;5140051;27;20216;-51
2022/08/18 01:45:20;;;;;;;15.25;13.10;;;;;;;;;;5140599;27;20212;-53
2022/08/18 01:47:48;;;;;;;23.27;13.30;;;;;;;;;;5140175;27;20205;-54
2022/08/18 01:50:16;;;;;;;18.10;12.55;;;;;;;;;;5139931;27;20526;-55
2022/08/18 01:52:44;;;;;;;15.63;12.93;;;;;;;;;;5139951;27;20505;-54
2022/08/18 01:55:10;;;;;;;15.48;13.27;;;;;;;;;;5140037;27;20220;-52
2022/08/18 01:57:43;;;;;;;18.05;13.35;;;;;;;;;;5140235;27;20202;-50
2022/08/18 02:00:14;;;;;;;17.60;13.32;;;;;;;;;;5140077;27;20239;-53
2022/08/18 02:02:41;;;;;;;19.25;13.95;;;;;;;;;;5140159;27;20205;-50
2022/08/18 02:05:12;;;;;;;17.58;13.38;;;;;;;;;;5139560;27;20216;-51
2022/08/18 02:07:39;;;;;;;18.00;13.90;;;;;;;;;;5139814;27;20579;-50
2022/08/18 02:10:12;;;;;;;16.42;11.93;;;;;;;;;;5140013;27;20212;-54
2022/08/18 02:12:42;;;;;;;17.38;12.70;;;;;;;;;;5140126;27;20185;-51
2022/08/18 02:15:10;;;;;;;16.75;12.38;;;;;;;;;;5139584;27;20266;-51
2022/08/18 02:17:43;;;;;;;19.52;10.80;;;;;;;;;;5139522;27;20193;-53
2022/08/18 02:20:13;;;;;;;16.88;11.48;;;;;;;;;;5139710;27;20213;-56
2022/08/18 02:22:40;;;;;;;16.45;11.43;;;;;;;;;;5139510;27;20539;-51
2022/08/18 02:25:08;;;;;;;13.10;11.70;;;;;;;;;;5136306;27;20309;-55
2022/08/18 02:27:35;;;;;;;12.82;10.60;;;;;;;;;;5139008;27;20202;-55
2022/08/18 02:30:06;;;;;;;15.27;10.82;;;;;;;;;;5136711;27;20189;-52
2022/08/18 02:32:33;;;;;;;21.40;12.32;;;;;;;;;;5139853;27;20305;-51
2022/08/18 02:35:01;;;;;;;14.95;11.38;;;;;;;;;;5139152;27;20209;-53
2022/08/18 02:37:29;;;;;;;18.70;12.68;;;;;;;;;;5139091;27;20659;-51
2022/08/18 02:39:56;;;;;;;14.88;11.82;;;;;;;;;;5139036;27;20220;-54
2022/08/18 02:42:24;;;;;;;17.20;11.55;;;;;;;;;;5138969;27;20266;-52
2022/08/18 02:44:51;;;;;;;17.25;11.77;;;;;;;;;;5120136;27;20603;-54
2022/08/18 02:47:21;;;;;;;21.88;13.50;;;;;;;;;;5138564;27;20763;-50
2022/08/18 02:49:48;;;;;;;17.25;13.00;;;;;;;;;;5138867;27;20218;-50
2022/08/18 02:52:16;;;;;;;20.05;12.95;;;;;;;;;;5138714;27;20193;-50
2022/08/18 02:54:43;;;;;;;19.23;13.45;;;;;;;;;;5138401;27;20570;-50
2022/08/18 02:57:11;;;;;;;18.73;14.52;;;;;;;;;;5138409;27;20265;-54
2022/08/18 02:59:39;;;;;;;20.15;13.52;;;;;;;;;;5138547;27;20237;-55
2022/08/18 03:02:08;;;;;;;19.35;13.60;;;;;;;;;;5138504;27;20225;-51
2022/08/18 03:04:35;;;;;;;15.75;12.90;;;;;;;;;;5138504;27;20205;-52
2022/08/18 03:07:04;;;;;;;13.38;11.88;;;;;;;;;;5138388;27;20197;-51
2022/08/18 03:09:31;;;;;;;18.90;13.30;;;;;;;;;;5138269;27;20197;-54
2022/08/18 03:11:59;;;;;;;17.23;12.25;;;;;;;;;;5138289;27;20209;-53
2022/08/18 03:14:26;;;;;;;16.77;12.50;;;;;;;;;;5138053;27;20266;-53
2022/08/18 03:16:53;;;;;;;16.67;12.30;;;;;;;;;;5137953;27;20633;-53
2022/08/18 03:19:23;;;;;;;16.02;12.65;;;;;;;;;;5132546;27;20221;-55
2022/08/18 03:21:51;;;;;;;13.65;11.18;;;;;;;;;;5137007;27;20566;-50
2022/08/18 03:24:19;;;;;;;14.88;10.40;;;;;;;;;;5137919;27;20572;-56
2022/08/18 03:26:50;;;;;;;17.08;12.00;;;;;;;;;;5138042;27;20212;-54
2022/08/18 03:29:17;;;;;;;12.10;10.77;;;;;;;;;;5137959;27;20193;-54
2022/08/18 03:31:44;;;;;;;13.15;11.52;;;;;;;;;;5137923;27;20305;-51
2022/08/18 03:34:11;;;;;;;17.80;11.63;;;;;;;;;;5137629;27;20626;-50
2022/08/18 03:36:40;;;;;;;12.98;10.90;;;;;;;;;;5138183;27;20265;-53
2022/08/18 03:39:09;;;;;;;16.83;11.10;;;;;;;;;;5137816;27;20626;-54
2022/08/18 03:41:42;;;;;;;19.50;10.90;;;;;;;;;;5137822;27;20213;-51
2022/08/18 03:44:26;;;;;;;17.92;12.13;;;;;;;;;;5137408;27;20212;-53
2022/08/18 03:46:53;;;;;;;15.55;10.43;;;;;;;;;;5137506;27;20234;-52
2022/08/18 03:49:21;;;;;;;15.75;10.93;;;;;;;;;;5137823;27;20209;-52
2022/08/18 03:51:50;;;;;;;19.20;11.57;;;;;;;;;;5137694;27;20209;-51
2022/08/18 03:54:18;;;;;;;15.27;12.55;;;;;;;;;;5137925;27;20197;-50
2022/08/18 03:56:46;;;;;;;17.17;13.27;;;;;;;;;;5137538;27;20202;-51
2022/08/18 03:59:18;;;;;;;18.88;13.48;;;;;;;;;;5137429;27;20291;-51
2022/08/18 04:01:47;;;;;;;24.55;14.38;;;;;;;;;;5132232;27;20272;-56
2022/08/18 04:04:22;;;;;;;17.70;14.40;;;;;;;;;;5135688;27;20197;-54
2022/08/18 04:06:58;;;;;;;20.23;14.30;;;;;;;;;;5129881;27;20196;-55
2022/08/18 04:09:27;;;;;;;20.77;14.10;;;;;;;;;;5129425;27;20200;-56
2022/08/18 04:11:55;;;;;;;21.23;14.73;;;;;;;;;;5135233;27;20197;-53
2022/08/18 04:14:24;;;;;;;20.10;14.40;;;;;;;;;;5125731;27;20205;-54
2022/08/18 04:16:51;;;;;;;19.77;13.57;;;;;;;;;;5127090;27;20327;-56
2022/08/18 04:19:19;;;;;;;19.48;14.15;;;;;;;;;;5130158;27;20217;-55
2022/08/18 04:21:53;;;;;;;22.77;15.45;;;;;;;;;;5125257;27;20557;-55
2022/08/18 04:24:20;;;;;;;23.40;15.27;;;;;;;;;;5119362;27;20294;-51
2022/08/18 04:26:47;;;;;;;19.08;14.73;;;;;;;;;;5115655;27;20233;-52
2022/08/18 04:29:16;;;;;;;18.85;14.73;;;;;;;;;;5115241;28;20248;-56
2022/08/18 04:31:44;;;;;;;20.40;15.68;;;;;;;;;;5115500;28;20230;-53
2022/08/18 04:34:12;;;;;;;19.08;14.88;;;;;;;;;;5115352;27;20719;-56
2022/08/18 04:36:40;;;;;;;21.40;15.73;;;;;;;;;;5115524;28;20217;-55
2022/08/18 04:39:10;;;;;;;19.13;15.73;;;;;;;;;;5115270;27;20226;-53
2022/08/18 04:41:40;;;;;;;20.60;15.10;;;;;;;;;;5115477;28;20229;-52
2022/08/18 04:44:08;;;;;;;20.17;15.30;;;;;;;;;;5115736;27;20240;-54
2022/08/18 04:46:41;;;;;;;21.50;15.82;;;;;;;;;;5114816;28;20230;-53
2022/08/18 04:49:09;;;;;;;22.60;15.60;;;;;;;;;;5115013;27;20727;-56
2022/08/18 04:51:40;;;;;;;23.23;16.58;;;;;;;;;;5114919;28;20226;-55
2022/08/18 04:54:27;;;;;;;18.20;14.93;;;;;;;;;;5114718;27;20757;-54
2022/08/18 04:56:55;;;;;;;24.00;15.90;;;;;;;;;;5115167;28;20597;-53
2022/08/18 04:59:22;;;;;;;20.83;15.32;;;;;;;;;;5116081;28;20248;-53
2022/08/18 05:01:49;;;;;;;21.65;16.75;;;;;;;;;;5115654;28;20214;-55
2022/08/18 05:04:16;;;;;;;21.25;15.65;;;;;;;;;;5115781;28;20214;-57
2022/08/18 05:06:44;;;;;;;21.85;16.70;;;;;;;;;;5116200;28;20201;-51
2022/08/18 05:09:13;;;;;;;23.30;16.02;;;;;;;;;;5115744;28;20289;-55
2022/08/18 05:11:49;;;;;;;20.05;16.25;;;;;;;;;;5115936;28;20196;-54
2022/08/18 05:14:16;;;;;;;26.13;16.13;;;;;;;;;;5115863;28;20224;-52
2022/08/18 05:16:44;;;;;;;23.55;16.77;;;;;;;;;;5115185;28;20210;-53
2022/08/18 05:19:20;;;;;;;18.60;15.55;;;;;;;;;;5115956;28;20275;-53
2022/08/18 05:21:49;;;;;;;17.75;15.85;;;;;;;;;;5115764;28;20221;-53
2022/08/18 05:24:20;;;;;;;20.83;15.98;;;;;;;;;;5115930;28;20198;-53
2022/08/18 05:26:47;;;;;;;22.70;17.67;;;;;;;;;;5115526;28;20222;-56
2022/08/18 05:29:15;;;;;;;26.73;17.55;;;;;;;;;;5114624;28;20661;-53
2022/08/18 05:31:47;;;;;;;21.90;16.77;;;;;;;;;;5115480;28;20661;-50
2022/08/18 05:34:15;;;;;;;22.80;17.83;;;;;;;;;;5115150;28;20205;-57
2022/08/18 05:36:47;;;;;;;24.52;17.67;;;;;;;;;;5115068;28;20205;-54
2022/08/18 05:39:20;;;;;;;19.00;16.90;;;;;;;;;;5131954;28;20198;-56
2022/08/18 05:41:51;;;;;;;21.50;17.23;;;;;;;;;;5134321;27;20217;-54
2022/08/18 05:44:27;;;;;;;21.98;16.95;;;;;;;;;;5132343;28;20253;-56
2022/08/18 05:46:55;;;;;;;26.13;16.92;;;;;;;;;;5132533;27;20292;-55
2022/08/18 05:49:24;;;;;;;32.63;15.95;;;;;;;;;;5134370;27;20245;-57
2022/08/18 05:51:54;;;;;;;20.75;16.27;;;;;;;;;;5134053;27;20261;-53
2022/08/18 05:57:16;;;;;;;18.73;15.77;;;;;;;;;;5131840;28;20201;-56
2022/08/18 05:59:44;;;;;;;18.92;15.63;;;;;;;;;;5131089;28;20228;-57
2022/08/18 06:02:33;;;;;;;19.92;14.90;;;;;;;;;;5133361;27;20221;-57
2022/08/18 06:05:12;;;;;;;16.55;14.85;;;;;;;;;;5133132;28;20207;-56
2022/08/18 06:07:40;;;;;;;22.13;15.77;;;;;;;;;;5133799;28;20634;-54
2022/08/18 06:10:08;;;;;;;20.33;15.65;;;;;;;;;;5133086;28;20209;-56
2022/08/18 06:12:49;;;;;;;22.73;15.25;;;;;;;;;;5134042;27;20193;-54
2022/08/18 06:15:29;;;;;;;15.63;13.40;;;;;;;;;;5132763;28;20610;-54
2022/08/18 06:18:06;;;;;;;19.17;13.52;;;;;;;;;;5131222;28;20228;-57
2022/08/18 06:21:04;;;;;;;18.70;13.75;;;;;;;;;;5132083;28;20521;-55
2022/08/18 06:23:40;;;;;;;19.15;12.93;;;;;;;;;;5132731;28;20184;-57
2022/08/18 06:26:39;;;;;;;18.15;13.40;;;;;;;;;;5132013;27;20189;-57
2022/08/18 06:29:16;;;;;;;21.48;13.85;;;;;;;;;;5136616;27;20196;-65
2022/08/18 06:32:10;;;;;;;18.42;12.93;;;;;;;;;;5135583;27;20201;-50
2022/08/18 06:34:46;;;;;;;17.65;13.48;;;;;;;;;;5137251;27;20201;-49
2022/08/18 06:38:37;;;;;;;18.40;12.60;;;;;;;;;;5136764;27;20525;-50
2022/08/18 06:40:23;;;;;;;20.38;12.25;;;;;;;;;;5137077;27;20804;-54
2022/08/18 06:42:50;;;;;;;21.38;12.90;;;;;;;;;;5136300;27;20225;-54
2022/08/18 06:45:18;;;;;;;15.85;11.15;;;;;;;;;;5135453;27;20272;-53
2022/08/18 06:47:54;;;;;;;18.65;12.13;;;;;;;;;;5136947;27;20254;-54
2022/08/18 06:50:48;;;;;;;13.85;11.02;;;;;;;;;;5144053;27;20181;-55
2022/08/18 06:53:15;;;;;;;18.23;11.88;;;;;;;;;;5134930;27;20185;-56
2022/08/18 06:55:54;;;;;;;14.77;11.75;;;;;;;;;;5135131;27;20197;-56
2022/08/18 06:58:29;;;;;;;14.55;10.50;;;;;;;;;;5137003;27;20225;-56
2022/08/18 07:01:03;;;;;;;15.82;10.68;;;;;;;;;;5132374;27;20613;-51
2022/08/18 07:03:33;;;;;;;13.77;10.45;;;;;;;;;;5137385;27;20198;-56
2022/08/18 07:06:06;;;;;;;14.25;11.00;;;;;;;;;;5137697;27;20208;-54
2022/08/18 07:08:42;;;;;;;21.30;11.10;;;;;;;;;;5137074;27;20517;-56
2022/08/18 07:11:19;;;;;;;18.92;10.75;;;;;;;;;;5120158;27;20513;-51
2022/08/18 07:13:48;;;;;;;13.48;10.65;;;;;;;;;;5136810;27;20190;-50
2022/08/18 07:16:35;;;;;;;18.67;11.48;;;;;;;;;;5136499;27;20186;-55
2022/08/18 07:19:30;;;;;;;14.07;10.82;;;;;;;;;;5135549;27;20204;-55
2022/08/18 07:22:05;;;;;;;18.27;12.05;;;;;;;;;;5133813;27;20289;-54
2022/08/18 07:24:37;;;;;;;15.30;11.00;;;;;;;;;;5136903;27;20333;-50
2022/08/18 07:27:16;;;;;;;14.88;11.38;;;;;;;;;;5135603;27;20200;-56
2022/08/18 07:30:06;;;;;;;17.67;11.27;;;;;;;;;;5134604;27;20185;-50
2022/08/18 07:32:50;;;;;;;14.77;10.15;;;;;;;;;;5072177;28;20637;-55
2022/08/18 07:35:22;;;;;;;14.38;10.48;;;;;;;;;;5055282;28;20200;-53
2022/08/18 07:38:00;;;;;;;15.27;9.82;;;;;;;;;;5072458;28;20204;-52
2022/08/18 07:40:56;;;;;;;13.57;9.35;;;;;;;;;;5058765;28;20199;-50
2022/08/18 07:43:33;;;;;;;13.80;9.75;;;;;;;;;;5073340;28;20275;-51
2022/08/18 07:46:06;;;;;;;11.55;9.00;;;;;;;;;;5073743;28;20557;-55
2022/08/18 07:48:33;;;;;;;14.52;9.80;;;;;;;;;;5053960;28;20204;-50
2022/08/18 07:51:13;;;;;;;13.43;9.88;;;;;;;;;;5053497;28;20235;-53
2022/08/18 07:53:46;;;;;;;13.65;9.82;;;;;;;;;;5062381;28;20203;-57
2022/08/18 07:56:47;;;;;;;16.08;9.82;;;;;;;;;;5057496;28;20218;-55
2022/08/18 07:59:35;;;;;;;14.32;9.52;;;;;;;;;;5073067;28;20219;-57
2022/08/18 08:02:04;;;;;;;15.30;8.68;;;;;;;;;;5057025;28;20276;-55
2022/08/18 08:05:04;;;;;;;12.32;8.73;;;;;;;;;;5073120;28;20728;-57
2022/08/18 08:07:57;;;;;;;11.13;8.48;;;;;;;;;;5070870;28;20203;-55
2022/08/18 08:10:30;;;;;;;10.45;7.93;;;;;;;;;;5122470;27;20201;-54
2022/08/18 08:13:17;;;;;;;9.75;7.22;;;;;;;;;;5136097;27;20200;-58
2022/08/18 08:16:26;;;;;;;16.05;8.07;;;;;;;;;;5133279;27;20193;-59
2022/08/18 08:19:09;;;;;;;12.25;8.23;;;;;;;;;;5134141;27;20640;-56
2022/08/18 08:21:43;;;;;;;12.63;7.95;;;;;;;;;;5132894;27;20197;-56
2022/08/18 08:24:48;;;;;;;14.07;8.60;;;;;;;;;;5134773;27;20193;-55
2022/08/18 08:27:42;;;;;;;15.35;8.10;;;;;;;;;;5134767;27;20339;-57
2022/08/18 08:30:13;;;;;;;11.50;7.00;;;;;;;;;;5134844;27;20193;-54
2022/08/18 08:32:53;;;;;;;13.95;7.72;;;;;;;;;;5132535;27;20208;-55
2022/08/18 08:35:33;;;;;;;11.02;7.32;;;;;;;;;;5136486;27;20185;-51
2022/08/18 08:38:25;;;;;;;15.10;7.90;;;;;;;;;;5135086;27;20190;-57
2022/08/18 08:41:33;;;;;;;10.70;7.72;;;;;;;;;;5134706;27;20589;-52
2022/08/18 08:44:13;;;;;;;11.18;7.13;;;;;;;;;;5120832;27;20198;-49
2022/08/18 08:46:48;;;;;;;12.48;7.40;;;;;;;;;;5136252;27;20189;-54
2022/08/18 08:49:26;;;;;;;8.63;7.10;;;;;;;;;;5133147;27;20196;-54
2022/08/18 08:51:58;;;;;;;14.80;9.23;;;;;;;;;;5137065;27;20201;-58
2022/08/18 08:54:43;;;;;;;14.07;9.50;;;;;;;;;;5150029;27;20181;-56
2022/08/18 08:57:12;;;;;;;9.10;7.15;;;;;;;;;;5136011;27;20217;-57
2022/08/18 08:59:42;;;;;;;11.68;7.15;;;;;;;;;;5139570;27;20281;-58
2022/08/18 09:02:27;;;;;;;10.45;7.68;;;;;;;;;;5151984;27;20220;-56
2022/08/18 09:05:40;;;;;;;10.35;7.40;;;;;;;;;;5124719;27;20254;-58
2022/08/18 09:08:10;;;;;;;10.60;7.07;;;;;;;;;;5112617;28;20209;-57
2022/08/18 09:10:49;;;;;;;9.73;6.25;;;;;;;;;;5113480;28;20243;-58
2022/08/18 09:14:07;;;;;;;11.27;7.40;;;;;;;;;;5112793;28;20293;-59
2022/08/18 09:16:56;;;;;;;13.10;7.65;;;;;;;;;;5112863;28;20251;-59
2022/08/18 09:19:52;;;;;;;11.57;7.63;;;;;;;;;;5113295;28;20502;-58
2022/08/18 09:22:34;;;;;;;12.50;5.82;;;;;;;;;;5103436;27;20237;-58
2022/08/18 09:25:08;;;;;;;11.02;6.97;;;;;;;;;;5134068;27;20281;-56
2022/08/18 09:27:44;;;;;;;14.23;6.35;;;;;;;;;;5133160;27;20188;-58
2022/08/18 09:30:39;;;;;;;7.05;5.50;;;;;;;;;;5132972;27;20258;-57
2022/08/18 09:33:37;;;;;;;8.27;5.43;;;;;;;;;;5130968;27;20226;-52
2022/08/18 09:36:25;;;;;;;11.45;5.80;;;;;;;;;;5110139;27;20324;-56
2022/08/18 09:42:00;;;;;;;10.00;5.80;;;;;;;;;;5133019;28;20654;-51
2022/08/18 09:44:44;;;;;;;13.27;6.57;;;;;;;;;;5133431;28;20289;-50
2022/08/18 09:47:32;;;;;;;13.77;6.75;;;;;;;;;;5133991;28;20502;-57
2022/08/18 09:50:04;;;;;;;13.25;6.57;;;;;;;;;;5133089;27;20228;-55
2022/08/18 09:52:33;;;;;;;9.02;6.13;;;;;;;;;;5132145;28;20208;-55
2022/08/18 09:55:26;;;;;;;10.35;5.07;;;;;;;;;;5131353;27;20559;-57
2022/08/18 09:58:40;;;;;;;11.85;5.80;;;;;;;;;;5131621;27;20221;-54
2022/08/18 10:01:30;;;;;;;11.25;6.00;;;;;;;;;;5130279;27;20220;-58
2022/08/18 10:04:13;;;;;;;9.00;5.38;;;;;;;;;;5138065;27;20228;-58
2022/08/18 10:06:45;;;;;;;7.50;5.63;;;;;;;;;;5133784;27;20236;-58
2022/08/18 10:09:32;;;;;;;9.75;4.75;;;;;;;;;;5130983;27;20296;-58
2022/08/18 10:12:28;;;;;;;10.45;5.78;;;;;;;;;;5133446;27;20232;-57
2022/08/18 10:15:04;;;;;;;11.10;5.70;;;;;;;;;;5134661;27;20965;-56
2022/08/18 10:18:11;;;;;;;7.82;5.55;;;;;;;;;;5134908;27;20213;-56
2022/08/18 10:20:46;;;;;;;11.18;6.00;;;;;;;;;;5135650;27;20229;-58
2022/08/18 10:23:52;;;;;;;11.82;6.40;;;;;;;;;;5137016;27;20574;-55
2022/08/18 10:26:42;;;;;;;11.68;6.55;;;;;;;;;;5121646;27;20213;-51
2022/08/18 10:29:24;;;;;;;8.75;5.38;;;;;;;;;;5137228;27;20217;-56
2022/08/18 10:31:54;;;;;;;8.70;5.50;;;;;;;;;;5134711;27;20213;-58
2022/08/18 10:34:39;;;;;;;13.50;6.00;;;;;;;;;;5136844;27;20645;-57
2022/08/18 10:37:37;;;;;;;39.35;7.20;;;;;;;;;;5134099;27;20228;-51
2022/08/18 10:40:08;;;;;;;16.23;6.30;;;;;;;;;;5134297;27;20228;-54
2022/08/18 10:42:41;;;;;;;36.08;7.20;;;;;;;;;;5136849;27;20320;-55
2022/08/18 10:45:22;;;;;;;13.52;5.80;;;;;;;;;;5136587;27;20583;-50
2022/08/18 10:48:23;;;;;;;18.13;6.07;;;;;;;;;;5135909;27;20657;-54
2022/08/18 10:51:01;;;;;;;6.88;5.60;;;;;;;;;;5073335;28;20231;-57
2022/08/18 10:53:30;;;;;;;13.40;6.13;;;;;;;;;;5070424;28;20317;-55
2022/08/18 10:56:25;;;;;;;13.70;6.15;;;;;;;;;;5071737;28;20219;-55
2022/08/18 10:59:11;;;;;;;13.57;6.07;;;;;;;;;;5057014;28;20262;-56
2022/08/18 11:01:58;;;;;;;9.90;5.60;;;;;;;;;;5072925;28;20255;-56
2022/08/18 11:04:46;;;;;;;10.05;5.90;;;;;;;;;;5070677;28;20227;-55
2022/08/18 11:07:29;;;;;;;10.02;5.90;;;;;;;;;;5070345;28;20208;-56
2022/08/18 11:10:17;;;;;;;7.60;5.68;;;;;;;;;;5072985;28;20218;-57
2022/08/18 11:13:14;;;;;;;8.02;5.63;;;;;;;;;;5068624;28;20278;-58
2022/08/18 11:16:02;;;;;;;9.70;5.63;;;;;;;;;;5072358;28;20219;-57
2022/08/18 11:18:33;;;;;;;10.02;5.50;;;;;;;;;;5069701;28;20234;-57
2022/08/18 11:21:38;;;;;;;9.85;5.93;;;;;;;;;;5070535;28;20250;-57
2022/08/18 11:24:22;;;;;;;13.30;7.05;;;;;;;;;;5070195;28;20246;-58
2022/08/18 11:27:06;;;;;;;8.65;5.15;;;;;;;;;;5084519;27;20221;-57
2022/08/18 11:29:42;;;;;;;8.88;5.05;;;;;;;;;;5133590;27;20224;-57
2022/08/18 11:32:23;;;;;;;12.60;5.15;;;;;;;;;;5133811;27;20349;-58
2022/08/18 11:34:58;;;;;;;14.52;5.35;;;;;;;;;;5134349;27;20286;-57
2022/08/18 11:37:40;;;;;;;9.20;5.20;;;;;;;;;;5134182;27;20235;-57
2022/08/18 11:40:40;;;;;;;8.32;5.35;;;;;;;;;;5135124;27;20255;-56
2022/08/18 11:43:30;;;;;;;10.88;5.18;;;;;;;;;;5135239;27;20236;-54
2022/08/18 11:46:12;;;;;;;12.38;5.40;;;;;;;;;;5134856;27;20177;-57
2022/08/18 11:48:48;;;;;;;11.07;5.35;;;;;;;;;;5135771;27;20205;-55
2022/08/18 11:51:24;;;;;;;10.65;5.90;;;;;;;;;;5134489;27;20197;-56
2022/08/18 11:53:58;;;;;;;10.52;5.25;;;;;;;;;;5136507;27;20193;-57
2022/08/18 11:56:46;;;;;;;13.02;5.70;;;;;;;;;;5135247;27;20198;-56
2022/08/18 11:59:25;;;;;;;10.65;6.07;;;;;;;;;;5137091;27;20229;-55
2022/08/18 12:02:16;;;;;;;7.95;4.72;;;;;;;;;;5136267;27;20201;-54
2022/08/18 12:04:49;;;;;;;9.18;5.30;;;;;;;;;;5135847;27;20182;-51
2022/08/18 12:07:28;;;;;;;12.93;5.40;;;;;;;;;;5137070;27;20197;-52
2022/08/18 12:10:23;;;;;;;9.07;5.85;;;;;;;;;;5136849;27;20197;-56
2022/08/18 12:13:21;;;;;;;10.57;5.28;;;;;;;;;;5135390;27;20525;-56
2022/08/18 12:16:07;;;;;;;10.40;6.10;;;;;;;;;;5135962;27;20284;-54
2022/08/18 12:18:34;;;;;;;8.50;5.07;;;;;;;;;;5135555;27;20197;-56
2022/08/18 12:21:01;;;;;;;12.57;5.57;;;;;;;;;;5135957;27;20197;-56
2022/08/18 12:23:31;;;;;;;13.73;5.55;;;;;;;;;;5135753;27;20216;-54
2022/08/18 12:26:19;;;;;;;13.27;5.57;;;;;;;;;;5136130;27;20622;-53
2022/08/18 12:29:04;;;;;;;15.35;5.45;;;;;;;;;;5116544;28;20202;-54
2022/08/18 12:31:37;;;;;;;7.07;5.18;;;;;;;;;;5129373;27;20565;-58
2022/08/18 12:34:18;;;;;;;9.68;5.55;;;;;;;;;;5126961;27;20197;-57
2022/08/18 12:37:07;;;;;;;9.63;4.80;;;;;;;;;;5134448;27;20224;-58
2022/08/18 12:39:56;;;;;;;11.40;5.00;;;;;;;;;;5135418;27;20213;-52
2022/08/18 12:42:24;;;;;;;6.32;4.82;;;;;;;;;;5134343;27;20236;-57
2022/08/18 12:44:53;;;;;;;11.38;5.60;;;;;;;;;;5135406;27;20228;-52
2022/08/18 12:47:24;;;;;;;7.72;4.80;;;;;;;;;;5153697;27;20212;-56
2022/08/18 12:49:57;;;;;;;12.27;4.72;;;;;;;;;;5134045;27;20229;-54
2022/08/18 12:52:27;;;;;;;11.02;5.93;;;;;;;;;;5134328;27;20307;-56
2022/08/18 12:54:54;;;;;;;13.85;6.47;;;;;;;;;;5127533;27;20676;-58
2022/08/18 12:57:24;;;;;;;13.55;5.32;;;;;;;;;;5132909;27;20606;-58
2022/08/18 13:00:12;;;;;;;8.95;5.15;;;;;;;;;;5130673;27;20351;-58
2022/08/18 13:02:45;;;;;;;10.05;5.10;;;;;;;;;;5132751;27;20605;-58
2022/08/18 13:05:13;;;;;;;8.07;5.35;;;;;;;;;;5131514;27;20225;-59
2022/08/18 13:07:41;;;;;;;7.60;4.70;;;;;;;;;;5132704;27;20222;-58
2022/08/18 13:10:09;;;;;;;8.63;5.00;;;;;;;;;;5133693;27;20220;-57
2022/08/18 13:12:56;;;;;;;10.23;4.80;;;;;;;;;;5132192;27;20241;-58
2022/08/18 13:15:28;;;;;;;10.98;4.60;;;;;;;;;;5133625;27;20386;-59
2022/08/18 13:17:55;;;;;;;10.75;4.20;;;;;;;;;;5132375;27;20249;-58
2022/08/18 13:20:22;;;;;;;10.80;4.85;;;;;;;;;;5133122;27;20229;-58
2022/08/18 13:22:52;;;;;;;15.07;5.43;;;;;;;;;;5132473;27;20241;-58
2022/08/18 13:25:19;;;;;;;6.60;5.00;;;;;;;;;;5133316;27;20225;-59
2022/08/18 13:27:59;;;;;;;8.48;4.95;;;;;;;;;;5132268;27;20546;-59
2022/08/18 13:30:27;;;;;;;12.18;5.00;;;;;;;;;;5166977;27;20229;-59
2022/08/18 13:33:01;;;;;;;7.53;5.10;;;;;;;;;;5132586;27;20222;-58
2022/08/18 13:35:49;;;;;;;10.55;5.07;;;;;;;;;;5133485;27;20228;-58
2022/08/18 13:38:22;;;;;;;9.68;5.22;;;;;;;;;;5131854;27;20225;-57
2022/08/18 13:40:54;;;;;;;12.70;5.88;;;;;;;;;;5130494;27;20221;-58
2022/08/18 13:43:40;;;;;;;8.95;5.25;;;;;;;;;;5131799;27;20235;-58
2022/08/18 13:46:10;;;;;;;11.40;5.15;;;;;;;;;;5130868;27;20233;-58
2022/08/18 13:48:38;;;;;;;10.60;5.10;;;;;;;;;;5131984;27;20228;-57
2022/08/18 13:51:09;;;;;;;13.00;5.15;;;;;;;;;;5131903;27;20217;-57
2022/08/18 13:53:38;;;;;;;9.95;5.68;;;;;;;;;;5132306;27;20270;-58
2022/08/18 13:56:23;;;;;;;9.25;5.88;;;;;;;;;;5131904;27;20556;-58
2022/08/18 13:58:58;;;;;;;9.02;5.65;;;;;;;;;;5133200;27;20248;-57
2022/08/18 14:01:25;;;;;;;12.82;5.18;;;;;;;;;;5133015;27;20237;-59
2022/08/18 14:04:13;;;;;;;10.95;5.40;;;;;;;;;;5131232;27;20243;-58
2022/08/18 14:06:45;;;;;;;10.95;4.90;;;;;;;;;;5132658;27;20217;-57
2022/08/18 14:09:25;;;;;;;12.07;5.47;;;;;;;;;;5132410;27;20281;-57
2022/08/18 14:12:08;;;;;;;8.18;5.32;;;;;;;;;;5132074;27;20331;-59
2022/08/18 14:14:42;;;;;;;7.18;4.97;;;;;;;;;;5132816;27;20237;-58
2022/08/18 14:17:09;;;;;;;9.70;5.55;;;;;;;;;;5131833;27;20289;-58
2022/08/18 14:27:54;;;;;;;10.50;5.38;;;;;;;;;;5132470;28;20356;-58
2022/08/18 14:30:22;;;;;;;9.30;5.13;;;;;;;;;;5133099;27;20294;-59
2022/08/18 14:32:51;;;;;;;12.32;5.93;;;;;;;;;;5130731;28;20225;-58
2022/08/18 14:35:21;;;;;;;9.20;4.55;;;;;;;;;;5132635;27;20221;-55
2022/08/18 14:38:08;;;;;;;7.00;4.72;;;;;;;;;;5133026;28;20221;-57
2022/08/18 14:40:37;;;;;;;7.93;5.10;;;;;;;;;;5132533;27;20217;-58
2022/08/18 14:43:10;;;;;;;9.63;5.03;;;;;;;;;;5130906;27;20630;-57
2022/08/18 14:45:47;;;;;;;8.52;5.05;;;;;;;;;;5130587;27;20241;-55
2022/08/18 14:48:17;;;;;;;8.35;5.00;;;;;;;;;;5133979;27;20216;-57
2022/08/18 14:50:51;;;;;;;13.15;4.72;;;;;;;;;;5143707;27;20228;-58
2022/08/18 14:53:19;;;;;;;10.20;5.60;;;;;;;;;;5130900;27;20320;-57
2022/08/18 14:55:51;;;;;;;9.77;5.38;;;;;;;;;;5133587;27;20258;-57
2022/08/18 14:58:19;;;;;;;11.02;5.47;;;;;;;;;;5133789;27;20224;-58
2022/08/18 15:00:46;;;;;;;11.27;5.63;;;;;;;;;;5133518;27;20575;-58
2022/08/18 15:03:23;;;;;;;9.77;5.50;;;;;;;;;;5130647;27;20308;-57
2022/08/18 15:05:59;;;;;;;9.77;5.22;;;;;;;;;;5131992;27;20243;-58
2022/08/18 15:08:33;;;;;;;10.93;5.72;;;;;;;;;;5134909;27;20701;-58
2022/08/18 15:11:02;;;;;;;9.75;4.97;;;;;;;;;;5134035;27;20226;-58
2022/08/18 15:13:29;;;;;;;14.90;6.55;;;;;;;;;;5134703;27;20221;-56
2022/08/18 15:15:56;;;;;;;17.50;5.28;;;;;;;;;;5133415;27;20282;-58
2022/08/18 15:18:28;;;;;;;12.80;6.22;;;;;;;;;;5136241;27;20218;-57
2022/08/18 15:26:53;;;;;;;10.68;5.03;;;;;;;;;;5138456;27;20191;-57
2022/08/18 15:29:29;;;;;;;13.25;5.70;;;;;;;;;;5137481;27;20237;-56
2022/08/18 15:32:01;;;;;;;9.05;5.47;;;;;;;;;;5137269;27;20258;-57
2022/08/18 15:34:37;;;;;;;13.35;5.80;;;;;;;;;;5137545;27;20201;-56
2022/08/18 15:37:18;;;;;;;31.23;11.38;;;;;;;;;;5137085;27;20726;-57
2022/08/18 15:39:48;;;;;;;16.55;7.00;;;;;;;;;;5137832;27;20193;-57
2022/08/18 15:42:22;;;;;;;10.98;6.10;;;;;;;;;;5134767;27;20244;-59
2022/08/18 15:44:51;;;;;;;12.57;6.43;;;;;;;;;;5137786;27;20222;-56